Time;durP1;ratioP1;P1;durP2;ratioP2;P2;SDS_P1;SDS_P2;PMS_P1;PMS_P2;Temp;Humidity;BMP_temperature;BMP_pressure;BME280_temperature;BME280_humidity;BME280_pressure;Samples;Min_cycle;Max_cycle;Signal;HPM_P1;HPM_P2
2021/12/25 00:02:07;;;;;;;8.97;8.00;;;6.00;99.90;;;;;;5073745;28;20392;-80
2021/12/25 00:04:51;;;;;;;13.20;9.57;;;6.00;99.90;;;;;;5072715;28;20453;-79
2021/12/25 00:07:36;;;;;;;13.57;8.40;;;6.00;99.90;;;;;;5071643;28;20427;-80
2021/12/25 00:10:21;;;;;;;11.13;9.20;;;6.00;99.90;;;;;;5071859;28;20460;-79
2021/12/25 00:13:05;;;;;;;8.47;7.50;;;6.10;99.90;;;;;;5070888;28;20394;-80
2021/12/25 00:15:51;;;;;;;8.97;8.07;;;6.10;99.90;;;;;;5071136;28;20423;-80
2021/12/25 00:18:38;;;;;;;12.50;9.23;;;6.10;99.90;;;;;;5071036;28;20421;-80
2021/12/25 00:21:22;;;;;;;21.40;10.20;;;6.20;99.90;;;;;;5071182;28;20424;-79
2021/12/25 00:24:08;;;;;;;12.43;10.20;;;6.20;99.90;;;;;;5073206;28;20390;-79
2021/12/25 00:30:09;;;;;;;10.97;8.37;;;6.20;99.90;;;;;;5074953;28;20368;-80
2021/12/25 00:33:00;;;;;;;13.37;8.33;;;6.10;99.90;;;;;;5072538;28;20413;-80
2021/12/25 00:35:46;;;;;;;16.73;9.73;;;6.10;99.90;;;;;;5070960;28;20385;-79
2021/12/25 00:38:31;;;;;;;9.83;7.27;;;6.10;99.90;;;;;;5071321;28;20401;-78
2021/12/25 00:41:18;;;;;;;10.60;7.90;;;6.10;99.90;;;;;;5070964;28;20467;-80
2021/12/25 00:44:03;;;;;;;14.93;10.27;;;6.20;99.90;;;;;;5069466;28;20372;-80
2021/12/25 00:46:47;;;;;;;11.40;8.20;;;6.10;99.90;;;;;;5070677;28;20500;-80
2021/12/25 00:49:32;;;;;;;12.83;8.20;;;6.20;99.90;;;;;;5071155;28;20444;-79
2021/12/25 00:52:16;;;;;;;10.07;9.03;;;6.00;99.90;;;;;;5070815;28;20361;-80
2021/12/25 00:55:04;;;;;;;9.73;8.73;;;6.10;99.90;;;;;;5070957;28;20853;-79
2021/12/25 00:57:49;;;;;;;13.90;9.40;;;6.10;99.90;;;;;;5071140;28;20361;-80
2021/12/25 01:00:33;;;;;;;10.93;7.53;;;6.10;99.90;;;;;;5069759;28;20373;-80
2021/12/25 01:03:18;;;;;;;10.67;8.60;;;6.10;99.90;;;;;;5070149;28;20422;-80
2021/12/25 01:06:03;;;;;;;11.20;7.77;;;6.10;99.90;;;;;;5070385;28;20539;-80
2021/12/25 01:08:48;;;;;;;9.00;7.43;;;6.00;99.90;;;;;;5069862;28;20407;-81
2021/12/25 01:11:35;;;;;;;8.83;6.60;;;6.00;99.90;;;;;;5070831;28;20388;-80
2021/12/25 01:14:30;;;;;;;14.80;7.77;;;6.00;99.90;;;;;;5069905;28;20390;-80
2021/12/25 01:17:32;;;;;;;11.60;7.57;;;6.00;99.90;;;;;;5070708;28;20376;-80
2021/12/25 01:20:35;;;;;;;16.60;7.83;;;6.00;99.90;;;;;;5070477;28;20389;-80
2021/12/25 01:29:37;;;;;;;10.70;8.20;;;5.80;99.90;;;;;;5050380;28;20439;-80
2021/12/25 01:32:59;;;;;;;10.67;7.90;;;5.80;99.90;;;;;;5049811;28;20373;-80
2021/12/25 01:35:43;;;;;;;9.10;7.73;;;5.80;99.90;;;;;;5049217;28;20490;-80
2021/12/25 01:41:55;;;;;;;8.13;6.77;;;5.80;99.90;;;;;;5050659;28;20433;-80
2021/12/25 01:50:24;;;;;;;13.80;7.47;;;5.90;99.90;;;;;;5070231;28;20425;-80
2021/12/25 01:53:08;;;;;;;6.73;6.13;;;5.70;99.90;;;;;;5070175;28;20378;-79
2021/12/25 01:55:54;;;;;;;7.50;6.07;;;5.70;99.90;;;;;;5070100;28;20372;-80
2021/12/25 01:58:39;;;;;;;8.03;7.23;;;5.60;99.90;;;;;;5069977;28;20380;-79
2021/12/25 02:01:24;;;;;;;15.30;6.50;;;5.70;99.90;;;;;;5069573;28;20408;-79
2021/12/25 02:04:09;;;;;;;7.50;6.80;;;5.70;99.90;;;;;;5069699;28;20503;-80
2021/12/25 02:06:53;;;;;;;7.87;5.90;;;5.70;99.90;;;;;;5069885;28;20449;-79
2021/12/25 02:09:39;;;;;;;8.67;7.87;;;5.80;99.90;;;;;;5068969;28;20474;-79
2021/12/25 02:12:23;;;;;;;10.23;8.70;;;5.70;99.90;;;;;;5068950;28;20364;-78
2021/12/25 02:15:14;;;;;;;8.47;6.30;;;5.70;99.90;;;;;;5060698;28;20376;-78
2021/12/25 02:21:18;;;;;;;7.97;6.47;;;5.70;99.90;;;;;;5063940;28;20376;-79
2021/12/25 02:24:01;;;;;;;9.10;6.80;;;5.80;99.90;;;;;;5059393;28;20372;-78
2021/12/25 02:26:46;;;;;;;10.60;6.77;;;5.70;99.90;;;;;;5060528;28;20486;-79
2021/12/25 02:29:30;;;;;;;8.80;7.70;;;5.70;99.90;;;;;;5060156;28;20457;-78
2021/12/25 02:32:15;;;;;;;11.77;6.93;;;5.80;99.90;;;;;;5059654;28;20427;-80
2021/12/25 02:34:59;;;;;;;9.33;5.90;;;5.80;99.90;;;;;;5058808;28;20423;-79
2021/12/25 02:37:44;;;;;;;13.70;8.53;;;5.90;99.90;;;;;;5059413;28;20368;-79
2021/12/25 02:40:29;;;;;;;7.97;5.37;;;5.90;99.90;;;;;;5061383;28;20532;-79
2021/12/25 02:43:15;;;;;;;8.10;6.37;;;5.90;99.90;;;;;;5060671;28;20400;-78
2021/12/25 02:46:02;;;;;;;12.93;8.17;;;5.90;99.90;;;;;;5064902;28;20540;-79
2021/12/25 02:48:47;;;;;;;10.17;6.80;;;5.90;99.90;;;;;;5065454;28;20401;-79
2021/12/25 02:51:31;;;;;;;7.83;6.10;;;5.80;99.90;;;;;;5066888;28;20389;-80
2021/12/25 02:54:16;;;;;;;9.23;6.13;;;5.70;99.90;;;;;;5072620;28;20369;-80
2021/12/25 02:57:01;;;;;;;8.10;6.20;;;5.70;99.90;;;;;;5072890;28;20552;-80
2021/12/25 02:59:46;;;;;;;7.83;7.10;;;5.80;99.90;;;;;;5072759;28;20373;-80
2021/12/25 03:02:30;;;;;;;8.90;7.33;;;6.00;99.90;;;;;;5072228;28;20394;-80
2021/12/25 03:05:16;;;;;;;10.20;7.73;;;6.10;99.90;;;;;;5072497;28;20385;-80
2021/12/25 03:08:01;;;;;;;8.50;6.40;;;6.10;99.90;;;;;;5072490;28;20428;-80
2021/12/25 03:10:47;;;;;;;8.80;6.80;;;6.00;99.90;;;;;;5073294;28;20364;-80
2021/12/25 03:13:35;;;;;;;7.10;6.50;;;6.00;99.90;;;;;;5072702;28;20460;-80
2021/12/25 03:16:19;;;;;;;8.80;6.53;;;6.20;99.90;;;;;;5071745;28;20467;-79
2021/12/25 03:19:07;;;;;;;10.37;7.20;;;6.30;99.90;;;;;;5072170;28;20394;-80
2021/12/25 03:21:52;;;;;;;7.30;6.60;;;6.30;99.90;;;;;;5071659;28;20437;-79
2021/12/25 03:24:36;;;;;;;10.87;6.77;;;6.50;99.90;;;;;;5071809;28;20353;-80
2021/12/25 03:27:21;;;;;;;8.77;6.40;;;6.60;99.90;;;;;;5072836;28;20461;-80
2021/12/25 03:30:08;;;;;;;7.70;6.47;;;6.60;99.90;;;;;;5071589;28;20482;-80
2021/12/25 03:32:52;;;;;;;6.53;4.60;;;6.60;99.90;;;;;;5071797;28;20394;-80
2021/12/25 03:35:37;;;;;;;5.67;4.87;;;6.50;99.90;;;;;;5072157;28;20490;-79
2021/12/25 03:38:22;;;;;;;4.70;3.90;;;6.30;99.90;;;;;;5071566;28;20397;-80
2021/12/25 03:41:07;;;;;;;3.43;2.90;;;6.20;99.90;;;;;;5071164;28;20365;-80
2021/12/25 03:43:52;;;;;;;9.30;3.50;;;6.20;99.90;;;;;;5070795;28;20465;-80
2021/12/25 03:46:39;;;;;;;4.13;3.23;;;6.10;99.90;;;;;;5071504;28;20485;-80
2021/12/25 03:49:34;;;;;;;3.83;3.37;;;6.00;99.90;;;;;;5071321;28;20418;-80
2021/12/25 03:58:16;;;;;;;3.10;2.80;;;5.90;99.90;;;;;;5070352;28;20376;-80
2021/12/25 04:01:22;;;;;;;3.53;2.47;;;5.90;99.90;;;;;;5071701;28;20369;-80
2021/12/25 04:04:17;;;;;;;3.27;2.90;;;5.80;99.90;;;;;;5072290;28;20360;-80
2021/12/25 04:07:11;;;;;;;5.53;2.20;;;5.70;99.90;;;;;;5071587;28;20453;-80
2021/12/25 04:10:00;;;;;;;2.57;2.37;;;5.60;99.90;;;;;;5069426;28;20486;-80
2021/12/25 04:12:44;;;;;;;2.50;2.30;;;5.60;99.90;;;;;;5072066;28;20369;-79
2021/12/25 04:15:29;;;;;;;3.33;3.03;;;5.50;99.90;;;;;;5071004;28;20417;-79
2021/12/25 04:18:14;;;;;;;5.20;2.90;;;5.50;99.90;;;;;;5071948;28;20402;-79
2021/12/25 04:20:58;;;;;;;3.03;2.80;;;5.50;99.90;;;;;;5070326;28;20747;-79
2021/12/25 04:23:44;;;;;;;2.67;2.47;;;5.40;99.90;;;;;;5070452;28;20508;-79
2021/12/25 04:26:29;;;;;;;2.57;2.37;;;5.50;99.90;;;;;;5070930;28;20441;-79
2021/12/25 04:29:36;;;;;;;4.43;2.80;;;5.40;99.90;;;;;;5070220;28;20344;-79
2021/12/25 05:02:25;;;;;;;2.53;2.33;;;5.10;99.90;;;;;;5069360;28;20791;-79
2021/12/25 05:05:15;;;;;;;10.73;2.97;;;5.10;99.90;;;;;;5069356;28;20890;-79
2021/12/25 05:07:59;;;;;;;2.23;2.03;;;5.00;99.90;;;;;;5068927;28;20384;-79
2021/12/25 05:10:44;;;;;;;2.23;2.03;;;5.00;99.90;;;;;;5069243;28;20368;-79
2021/12/25 05:13:28;;;;;;;2.40;2.20;;;5.00;99.90;;;;;;5069774;28;20385;-79
2021/12/25 05:16:13;;;;;;;3.43;3.13;;;5.00;99.90;;;;;;5069859;28;20352;-79
2021/12/25 05:18:57;;;;;;;3.20;2.33;;;5.00;99.90;;;;;;5069375;28;20378;-79
2021/12/25 05:21:42;;;;;;;3.07;2.87;;;5.00;99.90;;;;;;5069970;28;20477;-79
2021/12/25 05:24:27;;;;;;;3.03;2.83;;;5.00;99.90;;;;;;5070090;28;20403;-79
2021/12/25 05:27:14;;;;;;;2.70;2.50;;;5.00;99.90;;;;;;5068471;28;20474;-79
2021/12/25 05:29:58;;;;;;;3.23;2.00;;;5.00;99.90;;;;;;5070208;28;20375;-79
2021/12/25 05:32:43;;;;;;;2.57;2.37;;;5.00;99.90;;;;;;5070149;28;20401;-79
2021/12/25 05:35:28;;;;;;;3.37;2.73;;;5.00;99.90;;;;;;5070300;28;20394;-79
2021/12/25 05:38:14;;;;;;;2.53;2.40;;;4.90;99.90;;;;;;5070306;28;20409;-79
2021/12/25 05:40:59;;;;;;;2.40;2.20;;;5.00;99.90;;;;;;5069379;28;20447;-79
2021/12/25 05:43:43;;;;;;;3.17;2.97;;;4.90;99.90;;;;;;5068606;28;20862;-79
2021/12/25 05:46:28;;;;;;;6.20;2.60;;;4.90;99.90;;;;;;5068558;28;20447;-79
2021/12/25 05:49:13;;;;;;;2.87;2.67;;;4.90;99.90;;;;;;5068322;28;20360;-79
2021/12/25 05:51:57;;;;;;;2.33;2.00;;;4.80;99.90;;;;;;5069313;28;20392;-79
2021/12/25 05:54:42;;;;;;;1.90;1.80;;;4.80;99.90;;;;;;5069125;28;20393;-79
2021/12/25 05:57:27;;;;;;;2.20;1.97;;;4.80;99.90;;;;;;5072199;28;20418;-78
2021/12/25 06:00:13;;;;;;;2.00;1.80;;;4.60;99.90;;;;;;5076990;28;20423;-79
2021/12/25 06:02:58;;;;;;;3.80;2.40;;;4.60;99.90;;;;;;5077046;28;20410;-78
2021/12/25 06:05:43;;;;;;;3.20;2.90;;;4.60;99.90;;;;;;5076663;28;20401;-79
2021/12/25 06:08:28;;;;;;;4.30;3.10;;;4.60;99.90;;;;;;5077523;28;20356;-79
2021/12/25 06:11:16;;;;;;;3.00;2.67;;;4.60;99.90;;;;;;5071575;28;20451;-79
2021/12/25 06:14:11;;;;;;;2.70;2.50;;;4.60;99.90;;;;;;5069699;28;20387;-79
2021/12/25 06:16:56;;;;;;;6.17;2.47;;;4.70;99.90;;;;;;5073642;28;20359;-79
2021/12/25 06:19:40;;;;;;;2.23;1.90;;;4.70;99.90;;;;;;5079373;28;20419;-79
2021/12/25 06:22:25;;;;;;;2.53;2.33;;;4.50;99.90;;;;;;5080608;28;20447;-79
2021/12/25 06:25:10;;;;;;;2.73;2.53;;;4.60;99.90;;;;;;5077794;28;20380;-79
2021/12/25 06:27:55;;;;;;;2.60;2.40;;;4.50;99.90;;;;;;5076667;28;20477;-79
2021/12/25 06:30:43;;;;;;;3.67;2.67;;;4.50;99.90;;;;;;5074660;28;20436;-79
2021/12/25 06:33:27;;;;;;;2.30;2.10;;;4.60;99.90;;;;;;5072942;28;20365;-79
2021/12/25 06:36:12;;;;;;;2.20;2.00;;;4.60;99.90;;;;;;5073431;28;20394;-79
2021/12/25 06:38:57;;;;;;;3.70;2.57;;;4.40;99.90;;;;;;5072599;28;20501;-79
2021/12/25 06:41:43;;;;;;;2.80;2.60;;;4.50;99.90;;;;;;5072706;28;20420;-79
2021/12/25 06:44:28;;;;;;;2.10;2.00;;;4.60;99.90;;;;;;5072954;28;20360;-79
2021/12/25 06:47:13;;;;;;;2.80;2.43;;;4.60;99.90;;;;;;5073252;28;20432;-79
2021/12/25 06:49:57;;;;;;;2.47;2.27;;;4.70;99.90;;;;;;5072999;28;20440;-79
2021/12/25 06:52:45;;;;;;;3.10;2.60;;;4.70;99.90;;;;;;5074307;28;20368;-79
2021/12/25 06:55:30;;;;;;;3.37;1.90;;;4.60;99.90;;;;;;5074205;28;20407;-79
2021/12/25 06:58:14;;;;;;;2.60;2.20;;;4.50;99.90;;;;;;5073628;28;20398;-79
2021/12/25 07:00:59;;;;;;;2.73;2.53;;;4.50;99.90;;;;;;5072247;28;20417;-79
2021/12/25 07:03:43;;;;;;;3.07;2.83;;;4.50;99.90;;;;;;5067600;28;20360;-79
2021/12/25 07:06:27;;;;;;;2.27;2.03;;;4.50;99.90;;;;;;5061502;28;20507;-78
2021/12/25 07:09:12;;;;;;;2.07;1.97;;;4.50;99.90;;;;;;5059423;28;20418;-78
2021/12/25 07:11:57;;;;;;;3.50;3.13;;;4.40;99.90;;;;;;5060232;28;20419;-78
2021/12/25 07:14:41;;;;;;;2.30;2.10;;;4.40;99.90;;;;;;5060298;28;20425;-78
2021/12/25 07:17:26;;;;;;;5.23;3.10;;;4.40;99.90;;;;;;5060163;28;20415;-78
2021/12/25 07:20:11;;;;;;;4.10;2.70;;;4.40;99.90;;;;;;5060625;28;20460;-78
2021/12/25 07:22:55;;;;;;;3.30;2.93;;;4.30;99.90;;;;;;5055935;28;20491;-78
2021/12/25 07:25:41;;;;;;;2.03;1.93;;;4.40;99.90;;;;;;5040335;28;20369;-79
2021/12/25 07:28:26;;;;;;;2.60;2.40;;;4.40;99.90;;;;;;5040483;28;20365;-79
2021/12/25 07:31:10;;;;;;;4.57;3.60;;;4.40;99.90;;;;;;5039424;28;20420;-78
2021/12/25 07:33:55;;;;;;;3.77;3.43;;;4.30;99.90;;;;;;5041066;28;20381;-78
2021/12/25 07:36:39;;;;;;;3.37;3.07;;;4.30;99.90;;;;;;5045877;28;20417;-78
2021/12/25 07:39:24;;;;;;;5.40;3.00;;;4.30;99.90;;;;;;5060763;28;20400;-79
2021/12/25 07:42:09;;;;;;;5.60;3.50;;;4.20;99.90;;;;;;5063589;28;20376;-79
2021/12/25 07:45:01;;;;;;;3.57;3.33;;;4.20;99.90;;;;;;5061816;28;20453;-79
2021/12/25 07:47:55;;;;;;;3.67;3.37;;;4.10;99.90;;;;;;5062961;28;20415;-79
2021/12/25 07:50:40;;;;;;;6.10;5.07;;;4.10;99.90;;;;;;5062936;28;20389;-79
2021/12/25 07:53:25;;;;;;;3.47;3.10;;;4.00;99.90;;;;;;5062723;28;20436;-78
2021/12/25 07:56:09;;;;;;;6.00;4.00;;;4.00;99.90;;;;;;5063602;28;20392;-78
2021/12/25 07:58:54;;;;;;;3.37;3.07;;;4.00;99.90;;;;;;5061057;28;20396;-78
2021/12/25 08:01:39;;;;;;;5.57;3.67;;;4.00;99.90;;;;;;5044413;28;20389;-78
2021/12/25 08:04:23;;;;;;;2.73;2.53;;;4.00;99.90;;;;;;5044550;28;20370;-78
2021/12/25 08:07:07;;;;;;;3.10;2.80;;;3.90;99.90;;;;;;5045091;28;20424;-78
2021/12/25 08:09:57;;;;;;;5.20;4.70;;;3.90;99.90;;;;;;5044925;28;20393;-78
2021/12/25 08:12:45;;;;;;;5.30;3.70;;;3.80;99.90;;;;;;5044514;28;20409;-79
2021/12/25 08:15:30;;;;;;;12.30;7.63;;;3.80;99.90;;;;;;5046385;28;20417;-78
2021/12/25 08:18:15;;;;;;;6.80;4.77;;;3.80;99.90;;;;;;5046996;28;20885;-78
2021/12/25 08:21:04;;;;;;;6.43;5.17;;;3.80;99.90;;;;;;5039862;28;20369;-78
2021/12/25 08:23:49;;;;;;;5.10;3.93;;;3.80;99.90;;;;;;5039708;28;20897;-79
2021/12/25 08:26:34;;;;;;;4.37;3.30;;;3.80;99.90;;;;;;5039919;28;20464;-79
2021/12/25 08:29:18;;;;;;;4.53;4.17;;;3.80;99.90;;;;;;5039352;28;20403;-78
2021/12/25 08:32:03;;;;;;;4.07;3.77;;;3.80;99.90;;;;;;5039734;28;20501;-79
2021/12/25 08:34:48;;;;;;;3.40;3.10;;;3.80;99.90;;;;;;5039733;28;20366;-79
2021/12/25 08:37:32;;;;;;;4.40;3.40;;;3.80;99.90;;;;;;5039493;28;20366;-78
2021/12/25 08:40:18;;;;;;;3.77;3.43;;;3.80;99.90;;;;;;5039615;28;20722;-78
2021/12/25 08:43:04;;;;;;;4.13;3.37;;;3.80;99.90;;;;;;5038630;28;20366;-78
2021/12/25 08:46:00;;;;;;;22.47;12.10;;;3.70;99.90;;;;;;5039758;28;20451;-79
2021/12/25 08:48:46;;;;;;;4.23;2.90;;;3.80;99.90;;;;;;5039638;28;20369;-78
2021/12/25 08:51:30;;;;;;;3.90;3.30;;;3.80;99.90;;;;;;5042975;28;20754;-80
2021/12/25 08:54:15;;;;;;;5.83;4.20;;;3.80;99.90;;;;;;5048948;28;20804;-80
2021/12/25 08:57:01;;;;;;;3.80;3.47;;;3.80;99.90;;;;;;5050601;28;20373;-80
2021/12/25 08:59:46;;;;;;;4.77;4.30;;;3.80;99.90;;;;;;5050514;28;20374;-80
2021/12/25 09:02:30;;;;;;;3.33;3.00;;;3.80;99.90;;;;;;5050336;28;20394;-80
2021/12/25 09:05:15;;;;;;;3.23;2.93;;;3.80;99.90;;;;;;5049939;28;20410;-80
2021/12/25 09:08:01;;;;;;;4.23;3.93;;;3.80;99.90;;;;;;5049001;28;20393;-80
2021/12/25 09:10:45;;;;;;;4.80;3.93;;;3.90;99.90;;;;;;5048925;28;20414;-80
2021/12/25 09:13:33;;;;;;;3.40;3.10;;;3.80;99.90;;;;;;5049192;28;20369;-80
2021/12/25 09:16:18;;;;;;;3.07;2.83;;;3.90;99.90;;;;;;5051663;28;20383;-80
2021/12/25 09:19:02;;;;;;;4.60;3.60;;;3.80;99.90;;;;;;5049508;28;20387;-80
2021/12/25 09:21:47;;;;;;;5.33;4.93;;;3.80;99.90;;;;;;5049887;28;20423;-80
2021/12/25 09:24:32;;;;;;;3.37;2.87;;;3.90;99.90;;;;;;5077455;28;20405;-80
2021/12/25 09:27:17;;;;;;;5.87;4.67;;;3.90;99.90;;;;;;5049087;28;20413;-80
2021/12/25 09:30:03;;;;;;;5.20;3.90;;;4.00;99.90;;;;;;5049984;28;20369;-80
2021/12/25 09:32:48;;;;;;;5.73;3.40;;;3.90;99.90;;;;;;5048788;28;20398;-80
2021/12/25 09:35:33;;;;;;;5.60;3.90;;;3.90;99.90;;;;;;5050058;28;20369;-80
2021/12/25 09:38:17;;;;;;;4.90;4.37;;;3.90;99.90;;;;;;5050052;28;20417;-80
2021/12/25 09:41:05;;;;;;;4.90;3.97;;;3.80;99.90;;;;;;5049842;28;20397;-79
2021/12/25 09:43:50;;;;;;;5.03;4.53;;;3.80;99.90;;;;;;5049716;28;20408;-80
2021/12/25 09:46:35;;;;;;;4.87;4.13;;;3.70;99.90;;;;;;5048940;28;20476;-79
2021/12/25 09:49:19;;;;;;;3.97;3.60;;;3.70;99.90;;;;;;5049665;28;20381;-80
2021/12/25 09:52:04;;;;;;;6.77;4.67;;;3.70;99.90;;;;;;5048715;28;20514;-79
2021/12/25 09:54:49;;;;;;;5.43;4.93;;;3.70;99.90;;;;;;5049444;28;20440;-79
2021/12/25 09:57:33;;;;;;;6.47;4.00;;;3.70;99.90;;;;;;5048312;28;20465;-79
2021/12/25 10:00:22;;;;;;;5.17;4.13;;;3.70;99.90;;;;;;5049369;28;20476;-79
2021/12/25 10:03:06;;;;;;;6.70;4.70;;;3.70;99.90;;;;;;5049184;28;20458;-80
2021/12/25 10:05:52;;;;;;;5.40;4.47;;;3.80;99.90;;;;;;5049070;28;20437;-79
2021/12/25 10:08:39;;;;;;;7.03;4.73;;;3.80;99.90;;;;;;5050086;28;20390;-79
2021/12/25 10:11:25;;;;;;;4.03;3.73;;;3.80;99.90;;;;;;5049231;28;20450;-79
2021/12/25 10:14:09;;;;;;;4.00;3.70;;;3.80;99.90;;;;;;5053488;28;20394;-78
2021/12/25 10:16:54;;;;;;;6.10;3.83;;;3.70;99.90;;;;;;5053619;28;20390;-77
2021/12/25 10:19:39;;;;;;;8.23;5.47;;;3.70;99.90;;;;;;5052574;28;20476;-78
2021/12/25 10:22:23;;;;;;;4.23;3.67;;;3.70;99.90;;;;;;5048536;28;20409;-79
2021/12/25 10:25:11;;;;;;;5.83;3.30;;;3.70;99.90;;;;;;5048646;28;20381;-79
2021/12/25 10:28:00;;;;;;;6.00;3.97;;;3.80;99.90;;;;;;5075882;28;20470;-80
2021/12/25 10:30:51;;;;;;;4.27;3.90;;;3.80;99.90;;;;;;5048178;28;20472;-79
2021/12/25 10:33:41;;;;;;;3.07;2.77;;;3.80;99.90;;;;;;5048084;28;20718;-79
2021/12/25 10:36:36;;;;;;;4.30;3.90;;;3.80;99.90;;;;;;5046748;28;20373;-79
2021/12/25 10:39:23;;;;;;;4.87;3.90;;;3.80;99.90;;;;;;5048044;28;20366;-79
2021/12/25 10:42:12;;;;;;;6.30;2.63;;;3.90;99.90;;;;;;5047367;28;20399;-79
2021/12/25 10:44:58;;;;;;;4.43;2.90;;;4.00;99.90;;;;;;5047912;28;20451;-79
2021/12/25 10:47:43;;;;;;;3.17;2.83;;;4.00;99.90;;;;;;5047177;28;20454;-79
2021/12/25 10:50:34;;;;;;;6.00;3.13;;;3.90;99.90;;;;;;5074962;28;20897;-80
2021/12/25 10:53:42;;;;;;;3.73;3.43;;;4.00;99.90;;;;;;5048534;28;20377;-79
2021/12/25 10:56:35;;;;;;;3.33;2.90;;;3.90;99.90;;;;;;5048077;28;20401;-79
2021/12/25 10:59:19;;;;;;;3.20;2.90;;;3.90;99.90;;;;;;5048992;28;20369;-79
2021/12/25 11:02:05;;;;;;;4.07;3.67;;;3.80;99.90;;;;;;5046545;28;20381;-80
2021/12/25 11:04:50;;;;;;;5.80;4.50;;;3.90;99.90;;;;;;5047927;28;20385;-79
2021/12/25 11:07:34;;;;;;;7.70;4.03;;;4.00;99.90;;;;;;5050761;28;20484;-79
2021/12/25 11:10:19;;;;;;;4.37;3.00;;;3.90;99.90;;;;;;5051020;28;20398;-80
2021/12/25 11:13:20;;;;;;;4.60;3.80;;;3.90;99.90;;;;;;5051561;28;20417;-79
2021/12/25 11:16:27;;;;;;;5.90;4.10;;;3.90;99.90;;;;;;5051327;28;20426;-79
2021/12/25 11:19:19;;;;;;;4.80;3.50;;;3.80;99.90;;;;;;5051609;28;20414;-80
2021/12/25 11:22:04;;;;;;;4.10;3.70;;;3.80;99.90;;;;;;5052014;28;20434;-80
2021/12/25 11:24:49;;;;;;;4.23;3.47;;;3.80;99.90;;;;;;5050760;28;20404;-79
2021/12/25 11:27:34;;;;;;;5.40;3.73;;;3.70;99.90;;;;;;5051284;28;20422;-80
2021/12/25 11:30:21;;;;;;;5.10;3.60;;;3.70;99.90;;;;;;5052174;28;20392;-79
2021/12/25 11:33:05;;;;;;;5.73;4.67;;;3.70;99.90;;;;;;5050508;28;20365;-80
2021/12/25 11:35:50;;;;;;;5.40;3.63;;;3.70;99.90;;;;;;5051401;28;20396;-79
2021/12/25 11:38:35;;;;;;;4.37;3.87;;;3.70;99.90;;;;;;5050607;28;20373;-80
2021/12/25 11:41:26;;;;;;;3.93;3.30;;;3.70;99.90;;;;;;5050368;28;20374;-80
2021/12/25 11:44:40;;;;;;;5.00;4.40;;;3.80;99.90;;;;;;5049383;28;20377;-80
2021/12/25 11:47:32;;;;;;;3.97;3.30;;;3.80;99.90;;;;;;5054497;28;20440;-80
2021/12/25 11:50:21;;;;;;;4.40;4.00;;;3.90;99.90;;;;;;5058213;28;20381;-79
2021/12/25 11:53:18;;;;;;;3.97;3.63;;;3.70;99.90;;;;;;5054945;28;20370;-80
2021/12/25 11:59:17;;;;;;;2.90;2.70;;;3.80;99.90;;;;;;5081871;28;20388;-79
2021/12/25 12:02:03;;;;;;;4.73;3.70;;;3.90;99.90;;;;;;5058156;28;20442;-80
2021/12/25 12:05:25;;;;;;;3.10;2.90;;;3.90;99.90;;;;;;5050769;28;20357;-79
2021/12/25 12:08:12;;;;;;;2.83;2.50;;;3.90;99.90;;;;;;5049945;28;20424;-80
2021/12/25 12:11:00;;;;;;;4.07;2.77;;;3.90;99.90;;;;;;5054945;28;20353;-79
2021/12/25 12:13:44;;;;;;;2.10;2.00;;;3.90;99.90;;;;;;5082563;28;20362;-79
2021/12/25 12:16:39;;;;;;;2.07;1.93;;;3.90;99.90;;;;;;5053724;28;20489;-79
2021/12/25 12:19:44;;;;;;;2.20;2.10;;;3.80;99.90;;;;;;5050435;28;20387;-79
2021/12/25 12:22:48;;;;;;;3.00;2.77;;;3.80;99.90;;;;;;5047386;28;20760;-79
2021/12/25 12:25:48;;;;;;;3.90;3.60;;;3.70;99.90;;;;;;5050730;28;20382;-79
2021/12/25 12:28:46;;;;;;;2.37;1.83;;;3.70;99.90;;;;;;5061913;28;20380;-79
2021/12/25 12:31:47;;;;;;;2.73;2.53;;;3.70;99.90;;;;;;5068871;28;20361;-79
2021/12/25 12:34:36;;;;;;;2.70;1.93;;;3.70;99.90;;;;;;5069073;28;20360;-79
2021/12/25 12:37:27;;;;;;;1.87;1.77;;;3.80;99.90;;;;;;5068565;28;20384;-78
2021/12/25 12:40:24;;;;;;;2.60;2.40;;;3.80;99.90;;;;;;5069155;28;20360;-79
2021/12/25 12:43:13;;;;;;;3.60;3.40;;;3.80;99.90;;;;;;5068127;28;20418;-79
2021/12/25 12:45:58;;;;;;;4.73;3.77;;;3.80;99.90;;;;;;5054236;28;20463;-79
2021/12/25 12:49:03;;;;;;;2.50;2.30;;;3.80;99.90;;;;;;5069051;28;20727;-78
2021/12/25 12:52:09;;;;;;;3.17;2.73;;;3.80;99.90;;;;;;5060342;28;20735;-79
2021/12/25 12:54:59;;;;;;;4.93;2.77;;;3.70;99.90;;;;;;5070262;28;20409;-79
2021/12/25 12:57:45;;;;;;;3.40;3.10;;;3.70;99.90;;;;;;5069509;28;20445;-79
2021/12/25 13:00:30;;;;;;;3.83;3.13;;;3.70;99.90;;;;;;5068492;28;20421;-79
2021/12/25 13:03:15;;;;;;;5.30;4.90;;;3.70;99.90;;;;;;5069834;28;20364;-79
2021/12/25 13:06:05;;;;;;;9.13;4.33;;;3.70;99.90;;;;;;5069969;28;20476;-79
2021/12/25 13:08:51;;;;;;;6.40;2.97;;;3.70;99.90;;;;;;5072164;28;20403;-79
2021/12/25 13:11:52;;;;;;;3.43;2.63;;;3.70;99.90;;;;;;5076597;28;20413;-79
2021/12/25 13:14:39;;;;;;;5.53;3.90;;;3.50;99.90;;;;;;5076485;28;20390;-79
2021/12/25 13:17:23;;;;;;;8.87;3.63;;;3.30;99.90;;;;;;5076805;28;20357;-79
2021/12/25 13:20:10;;;;;;;4.47;4.10;;;3.40;99.90;;;;;;5076858;28;20423;-78
2021/12/25 13:22:57;;;;;;;3.50;3.17;;;3.60;99.90;;;;;;5066150;28;20404;-79
2021/12/25 13:25:59;;;;;;;2.87;2.67;;;3.70;99.90;;;;;;5064736;28;20357;-78
2021/12/25 13:28:46;;;;;;;4.00;2.50;;;3.80;99.90;;;;;;5064800;28;20443;-80
2021/12/25 13:31:33;;;;;;;6.10;3.40;;;3.50;99.90;;;;;;5064834;28;20390;-79
2021/12/25 13:34:21;;;;;;;3.53;2.50;;;3.40;99.90;;;;;;5063101;28;20398;-79
2021/12/25 13:37:13;;;;;;;2.20;2.10;;;3.50;99.90;;;;;;5056546;28;20468;-79
2021/12/25 13:39:58;;;;;;;2.63;2.43;;;3.10;99.90;;;;;;5057219;28;20452;-78
2021/12/25 13:42:42;;;;;;;4.27;3.87;;;3.10;99.90;;;;;;5056889;28;20365;-78
2021/12/25 13:45:27;;;;;;;3.57;3.27;;;3.20;99.90;;;;;;5057275;28;20522;-79
2021/12/25 13:48:12;;;;;;;9.60;5.30;;;3.10;99.90;;;;;;5057216;28;20453;-78
2021/12/25 13:51:02;;;;;;;4.93;4.13;;;3.10;99.90;;;;;;5070078;28;20409;-79
2021/12/25 13:53:46;;;;;;;4.43;3.20;;;3.30;99.90;;;;;;5056594;28;20452;-80
2021/12/25 13:56:31;;;;;;;4.30;2.70;;;3.50;99.90;;;;;;5066873;28;20362;-80
2021/12/25 13:59:16;;;;;;;3.77;3.47;;;3.50;99.90;;;;;;5070278;28;20706;-80
2021/12/25 14:02:06;;;;;;;3.50;2.87;;;3.60;99.90;;;;;;5069665;28;20390;-80
2021/12/25 14:04:52;;;;;;;2.10;1.90;;;3.70;99.90;;;;;;5069882;28;20382;-80
2021/12/25 14:07:38;;;;;;;3.93;3.60;;;3.10;99.90;;;;;;5069275;28;20423;-80
2021/12/25 14:10:26;;;;;;;12.83;7.10;;;3.20;99.90;;;;;;5068012;28;20413;-79
2021/12/25 14:13:21;;;;;;;4.33;3.47;;;3.40;99.90;;;;;;5069774;28;20390;-80
2021/12/25 14:16:06;;;;;;;6.80;3.87;;;3.30;99.90;;;;;;5068431;28;20365;-79
2021/12/25 14:18:51;;;;;;;3.60;3.27;;;3.40;99.90;;;;;;5070964;28;20372;-79
2021/12/25 14:21:35;;;;;;;3.43;2.80;;;3.20;99.90;;;;;;5067050;28;20460;-79
2021/12/25 14:24:20;;;;;;;3.87;3.57;;;3.20;99.90;;;;;;5070117;28;20449;-79
2021/12/25 14:27:07;;;;;;;4.40;3.27;;;3.30;99.90;;;;;;5066201;28;20464;-79
2021/12/25 14:30:03;;;;;;;6.60;5.60;;;3.20;99.90;;;;;;5054758;28;20365;-79
2021/12/25 14:32:50;;;;;;;9.00;6.70;;;3.10;99.90;;;;;;5056411;28;20385;-79
2021/12/25 14:35:38;;;;;;;13.40;7.00;;;3.30;99.90;;;;;;5068891;28;20416;-80
2021/12/25 14:38:24;;;;;;;12.37;5.50;;;3.20;99.90;;;;;;5067110;28;20394;-79
2021/12/25 14:41:10;;;;;;;2.80;2.60;;;3.30;99.90;;;;;;5072173;28;20426;-79
2021/12/25 14:43:55;;;;;;;5.73;3.30;;;3.00;99.90;;;;;;5072782;28;20944;-79
2021/12/25 14:46:39;;;;;;;14.87;6.20;;;2.90;99.90;;;;;;5071871;28;20474;-79
2021/12/25 14:49:38;;;;;;;7.00;3.67;;;2.90;99.90;;;;;;5071736;28;20398;-79
2021/12/25 14:52:23;;;;;;;5.10;3.13;;;3.00;99.90;;;;;;5071288;28;20386;-79
2021/12/25 14:55:32;;;;;;;7.20;3.57;;;3.00;99.90;;;;;;5072875;28;20388;-79
2021/12/25 14:58:24;;;;;;;4.07;3.37;;;3.10;99.90;;;;;;5071564;28;20420;-79
2021/12/25 15:01:15;;;;;;;4.40;3.70;;;3.20;99.90;;;;;;5071078;28;20403;-79
2021/12/25 15:04:09;;;;;;;5.90;4.30;;;3.40;99.90;;;;;;5070933;28;20452;-79
2021/12/25 15:06:58;;;;;;;5.63;3.33;;;3.40;99.90;;;;;;5086018;28;20456;-79
2021/12/25 15:09:49;;;;;;;2.77;2.57;;;3.10;99.90;;;;;;5072878;28;20427;-79
2021/12/25 15:12:34;;;;;;;2.90;2.60;;;3.10;99.90;;;;;;5072450;28;20390;-79
2021/12/25 15:15:22;;;;;;;2.90;2.70;;;2.70;99.90;;;;;;5062901;28;20372;-79
2021/12/25 15:18:07;;;;;;;3.13;2.93;;;2.70;99.90;;;;;;5071464;28;20368;-79
2021/12/25 15:21:18;;;;;;;4.57;2.30;;;2.60;99.90;;;;;;5071122;28;20380;-80
2021/12/25 15:24:17;;;;;;;3.70;2.57;;;2.90;99.90;;;;;;5072422;28;20424;-80
2021/12/25 15:27:06;;;;;;;3.13;2.27;;;2.90;99.90;;;;;;5072535;28;20449;-80
2021/12/25 15:29:52;;;;;;;2.23;2.10;;;2.80;99.90;;;;;;5071700;28;20361;-79
2021/12/25 15:32:40;;;;;;;3.30;2.50;;;2.70;99.90;;;;;;5071519;28;20491;-79
2021/12/25 15:35:32;;;;;;;2.67;2.47;;;3.00;99.90;;;;;;5071252;28;20400;-79
2021/12/25 15:38:28;;;;;;;2.70;2.50;;;2.90;99.90;;;;;;5072062;28;20434;-79
2021/12/25 15:41:14;;;;;;;2.57;2.40;;;2.70;99.90;;;;;;5071364;28;20433;-79
2021/12/25 15:43:59;;;;;;;2.13;2.03;;;2.80;99.90;;;;;;5070662;28;20437;-79